sensor_id;sensor_type;location;lat;lon;timestamp;P1;durP1;ratioP1;P2;durP2;ratioP2
16393;SDS011;8306;51.128;4.476;2022-10-31T00:01:11;9.30;;;8.50;;
16393;SDS011;8306;51.128;4.476;2022-10-31T00:03:40;9.30;;;8.47;;
16393;SDS011;8306;51.128;4.476;2022-10-31T00:06:06;9.10;;;8.20;;
16393;SDS011;8306;51.128;4.476;2022-10-31T00:08:33;9.30;;;8.50;;
16393;SDS011;8306;51.128;4.476;2022-10-31T00:10:59;9.47;;;8.57;;
16393;SDS011;8306;51.128;4.476;2022-10-31T00:13:26;10.07;;;9.10;;
16393;SDS011;8306;51.128;4.476;2022-10-31T00:15:52;9.33;;;8.63;;
16393;SDS011;8306;51.128;4.476;2022-10-31T00:18:19;10.83;;;9.73;;
16393;SDS011;8306;51.128;4.476;2022-10-31T00:20:45;9.00;;;8.30;;
16393;SDS011;8306;51.128;4.476;2022-10-31T00:23:12;8.47;;;7.77;;
16393;SDS011;8306;51.128;4.476;2022-10-31T00:25:39;8.60;;;7.90;;
16393;SDS011;8306;51.128;4.476;2022-10-31T00:28:05;8.43;;;7.73;;
16393;SDS011;8306;51.128;4.476;2022-10-31T00:30:32;7.97;;;7.23;;
16393;SDS011;8306;51.128;4.476;2022-10-31T00:32:58;10.47;;;8.27;;
16393;SDS011;8306;51.128;4.476;2022-10-31T00:35:24;10.37;;;8.53;;
16393;SDS011;8306;51.128;4.476;2022-10-31T00:37:51;8.63;;;7.83;;
16393;SDS011;8306;51.128;4.476;2022-10-31T00:40:17;9.27;;;8.47;;
16393;SDS011;8306;51.128;4.476;2022-10-31T00:42:44;12.57;;;7.83;;
16393;SDS011;8306;51.128;4.476;2022-10-31T00:45:10;8.27;;;7.63;;
16393;SDS011;8306;51.128;4.476;2022-10-31T00:47:37;8.17;;;7.57;;
16393;SDS011;8306;51.128;4.476;2022-10-31T00:50:04;9.03;;;8.27;;
16393;SDS011;8306;51.128;4.476;2022-10-31T00:52:30;8.10;;;7.40;;
16393;SDS011;8306;51.128;4.476;2022-10-31T00:54:56;9.60;;;7.70;;
16393;SDS011;8306;51.128;4.476;2022-10-31T00:57:23;9.10;;;8.27;;
16393;SDS011;8306;51.128;4.476;2022-10-31T00:59:49;8.57;;;7.77;;
16393;SDS011;8306;51.128;4.476;2022-10-31T01:02:16;9.30;;;8.60;;
16393;SDS011;8306;51.128;4.476;2022-10-31T01:04:42;9.07;;;8.27;;
16393;SDS011;8306;51.128;4.476;2022-10-31T01:07:09;9.00;;;8.30;;
16393;SDS011;8306;51.128;4.476;2022-10-31T01:09:35;9.07;;;8.27;;
16393;SDS011;8306;51.128;4.476;2022-10-31T01:12:02;9.47;;;8.40;;
16393;SDS011;8306;51.128;4.476;2022-10-31T01:14:28;9.20;;;8.40;;
16393;SDS011;8306;51.128;4.476;2022-10-31T01:16:54;9.70;;;8.90;;
16393;SDS011;8306;51.128;4.476;2022-10-31T01:19:21;9.23;;;8.43;;
16393;SDS011;8306;51.128;4.476;2022-10-31T01:21:48;10.50;;;9.60;;
16393;SDS011;8306;51.128;4.476;2022-10-31T01:24:14;9.40;;;8.50;;
16393;SDS011;8306;51.128;4.476;2022-10-31T01:26:40;8.70;;;8.00;;
16393;SDS011;8306;51.128;4.476;2022-10-31T01:29:07;9.93;;;8.30;;
16393;SDS011;8306;51.128;4.476;2022-10-31T01:31:35;8.90;;;8.00;;
16393;SDS011;8306;51.128;4.476;2022-10-31T01:34:00;8.83;;;8.10;;
16393;SDS011;8306;51.128;4.476;2022-10-31T01:36:28;8.13;;;7.27;;
16393;SDS011;8306;51.128;4.476;2022-10-31T01:38:53;8.70;;;8.00;;
16393;SDS011;8306;51.128;4.476;2022-10-31T01:41:24;8.80;;;8.10;;
16393;SDS011;8306;51.128;4.476;2022-10-31T01:43:56;8.50;;;7.80;;
16393;SDS011;8306;51.128;4.476;2022-10-31T01:46:25;8.97;;;8.07;;
16393;SDS011;8306;51.128;4.476;2022-10-31T01:48:51;9.30;;;8.50;;
16393;SDS011;8306;51.128;4.476;2022-10-31T01:51:17;9.57;;;8.73;;
16393;SDS011;8306;51.128;4.476;2022-10-31T01:53:43;8.60;;;7.90;;
16393;SDS011;8306;51.128;4.476;2022-10-31T01:56:10;8.63;;;7.90;;
16393;SDS011;8306;51.128;4.476;2022-10-31T01:58:36;9.40;;;8.47;;
16393;SDS011;8306;51.128;4.476;2022-10-31T02:01:03;9.60;;;8.70;;
16393;SDS011;8306;51.128;4.476;2022-10-31T02:03:29;9.63;;;8.80;;
16393;SDS011;8306;51.128;4.476;2022-10-31T02:05:56;10.10;;;9.20;;
16393;SDS011;8306;51.128;4.476;2022-10-31T02:08:29;10.60;;;9.33;;
16393;SDS011;8306;51.128;4.476;2022-10-31T02:10:58;9.77;;;8.80;;
16393;SDS011;8306;51.128;4.476;2022-10-31T02:13:24;9.67;;;8.87;;
16393;SDS011;8306;51.128;4.476;2022-10-31T02:15:54;9.77;;;8.77;;
16393;SDS011;8306;51.128;4.476;2022-10-31T02:18:19;10.60;;;9.50;;
16393;SDS011;8306;51.128;4.476;2022-10-31T02:20:48;9.30;;;8.40;;
16393;SDS011;8306;51.128;4.476;2022-10-31T02:29:05;13.07;;;8.90;;
16393;SDS011;8306;51.128;4.476;2022-10-31T02:34:31;10.07;;;9.27;;
16393;SDS011;8306;51.128;4.476;2022-10-31T02:37:01;12.03;;;9.60;;
16393;SDS011;8306;51.128;4.476;2022-10-31T02:42:09;9.23;;;8.53;;
16393;SDS011;8306;51.128;4.476;2022-10-31T02:44:37;9.23;;;8.43;;
16393;SDS011;8306;51.128;4.476;2022-10-31T02:47:17;9.70;;;8.80;;
16393;SDS011;8306;51.128;4.476;2022-10-31T02:49:40;9.63;;;8.77;;
16393;SDS011;8306;51.128;4.476;2022-10-31T02:52:23;9.30;;;8.60;;
16393;SDS011;8306;51.128;4.476;2022-10-31T02:54:47;8.80;;;8.10;;
16393;SDS011;8306;51.128;4.476;2022-10-31T02:57:14;9.77;;;8.60;;
16393;SDS011;8306;51.128;4.476;2022-10-31T02:59:43;9.33;;;8.40;;
16393;SDS011;8306;51.128;4.476;2022-10-31T03:02:19;9.03;;;8.23;;
16393;SDS011;8306;51.128;4.476;2022-10-31T03:05:07;9.20;;;8.40;;
16393;SDS011;8306;51.128;4.476;2022-10-31T03:10:27;8.67;;;7.97;;
16393;SDS011;8306;51.128;4.476;2022-10-31T03:12:54;9.33;;;8.43;;
16393;SDS011;8306;51.128;4.476;2022-10-31T03:15:35;9.30;;;8.60;;
16393;SDS011;8306;51.128;4.476;2022-10-31T03:20:46;8.63;;;7.87;;
16393;SDS011;8306;51.128;4.476;2022-10-31T03:23:12;8.90;;;8.20;;
16393;SDS011;8306;51.128;4.476;2022-10-31T03:25:37;11.03;;;9.97;;
16393;SDS011;8306;51.128;4.476;2022-10-31T03:28:04;10.17;;;9.27;;
16393;SDS011;8306;51.128;4.476;2022-10-31T03:30:30;9.77;;;8.97;;
16393;SDS011;8306;51.128;4.476;2022-10-31T03:32:57;12.60;;;8.20;;
16393;SDS011;8306;51.128;4.476;2022-10-31T03:35:23;8.33;;;7.73;;
16393;SDS011;8306;51.128;4.476;2022-10-31T03:37:50;8.23;;;7.63;;
16393;SDS011;8306;51.128;4.476;2022-10-31T03:40:16;9.90;;;8.60;;
16393;SDS011;8306;51.128;4.476;2022-10-31T03:42:43;8.73;;;7.93;;
16393;SDS011;8306;51.128;4.476;2022-10-31T03:45:13;9.37;;;8.67;;
16393;SDS011;8306;51.128;4.476;2022-10-31T03:47:38;9.20;;;8.40;;
16393;SDS011;8306;51.128;4.476;2022-10-31T03:50:05;9.23;;;8.53;;
16393;SDS011;8306;51.128;4.476;2022-10-31T03:55:11;10.20;;;9.40;;
16393;SDS011;8306;51.128;4.476;2022-10-31T03:57:40;9.33;;;8.63;;
16393;SDS011;8306;51.128;4.476;2022-10-31T04:00:06;9.30;;;8.50;;
16393;SDS011;8306;51.128;4.476;2022-10-31T04:02:32;9.70;;;8.90;;
16393;SDS011;8306;51.128;4.476;2022-10-31T04:04:59;10.27;;;9.27;;
16393;SDS011;8306;51.128;4.476;2022-10-31T04:07:26;10.83;;;9.93;;
16393;SDS011;8306;51.128;4.476;2022-10-31T04:09:51;9.17;;;8.43;;
16393;SDS011;8306;51.128;4.476;2022-10-31T04:12:17;8.93;;;8.03;;
16393;SDS011;8306;51.128;4.476;2022-10-31T04:14:45;8.30;;;7.60;;
16393;SDS011;8306;51.128;4.476;2022-10-31T04:17:12;10.47;;;9.47;;
16393;SDS011;8306;51.128;4.476;2022-10-31T04:19:40;9.27;;;8.57;;
16393;SDS011;8306;51.128;4.476;2022-10-31T04:22:06;11.20;;;10.00;;
16393;SDS011;8306;51.128;4.476;2022-10-31T04:24:33;9.73;;;8.83;;
16393;SDS011;8306;51.128;4.476;2022-10-31T04:26:59;9.87;;;9.07;;
16393;SDS011;8306;51.128;4.476;2022-10-31T04:29:26;9.87;;;9.03;;
16393;SDS011;8306;51.128;4.476;2022-10-31T04:31:52;10.53;;;9.53;;
16393;SDS011;8306;51.128;4.476;2022-10-31T04:34:18;9.40;;;8.70;;
16393;SDS011;8306;51.128;4.476;2022-10-31T04:36:45;9.37;;;8.37;;
16393;SDS011;8306;51.128;4.476;2022-10-31T04:39:11;9.33;;;8.53;;
16393;SDS011;8306;51.128;4.476;2022-10-31T04:41:38;9.50;;;8.70;;
16393;SDS011;8306;51.128;4.476;2022-10-31T04:44:04;8.43;;;7.63;;
16393;SDS011;8306;51.128;4.476;2022-10-31T04:46:31;8.60;;;7.73;;
16393;SDS011;8306;51.128;4.476;2022-10-31T04:48:57;9.23;;;8.33;;
16393;SDS011;8306;51.128;4.476;2022-10-31T04:51:24;10.50;;;9.47;;
16393;SDS011;8306;51.128;4.476;2022-10-31T04:53:50;12.10;;;10.97;;
16393;SDS011;8306;51.128;4.476;2022-10-31T04:56:17;9.63;;;8.70;;
16393;SDS011;8306;51.128;4.476;2022-10-31T04:58:43;10.63;;;9.40;;
16393;SDS011;8306;51.128;4.476;2022-10-31T05:01:10;10.63;;;9.53;;
16393;SDS011;8306;51.128;4.476;2022-10-31T05:03:36;11.17;;;10.17;;
16393;SDS011;8306;51.128;4.476;2022-10-31T05:06:03;11.40;;;10.30;;
16393;SDS011;8306;51.128;4.476;2022-10-31T05:08:29;10.43;;;9.53;;
16393;SDS011;8306;51.128;4.476;2022-10-31T05:10:59;11.10;;;10.03;;
16393;SDS011;8306;51.128;4.476;2022-10-31T05:13:22;11.10;;;10.00;;
16393;SDS011;8306;51.128;4.476;2022-10-31T05:15:49;10.63;;;9.73;;
16393;SDS011;8306;51.128;4.476;2022-10-31T05:18:15;11.13;;;10.03;;
16393;SDS011;8306;51.128;4.476;2022-10-31T05:20:42;9.77;;;8.97;;
16393;SDS011;8306;51.128;4.476;2022-10-31T05:23:08;24.07;;;12.83;;
16393;SDS011;8306;51.128;4.476;2022-10-31T05:25:35;15.93;;;11.87;;
16393;SDS011;8306;51.128;4.476;2022-10-31T05:28:01;13.03;;;11.07;;
16393;SDS011;8306;51.128;4.476;2022-10-31T05:30:28;13.30;;;11.90;;
16393;SDS011;8306;51.128;4.476;2022-10-31T05:32:54;11.33;;;10.43;;
16393;SDS011;8306;51.128;4.476;2022-10-31T05:35:22;10.53;;;9.63;;
16393;SDS011;8306;51.128;4.476;2022-10-31T05:37:47;9.57;;;8.70;;
16393;SDS011;8306;51.128;4.476;2022-10-31T05:40:14;9.43;;;8.63;;
16393;SDS011;8306;51.128;4.476;2022-10-31T05:42:41;10.70;;;9.63;;
16393;SDS011;8306;51.128;4.476;2022-10-31T05:45:10;9.97;;;9.13;;
16393;SDS011;8306;51.128;4.476;2022-10-31T05:47:36;9.90;;;9.00;;
16393;SDS011;8306;51.128;4.476;2022-10-31T05:50:02;9.57;;;8.77;;
16393;SDS011;8306;51.128;4.476;2022-10-31T05:52:29;10.23;;;9.23;;
16393;SDS011;8306;51.128;4.476;2022-10-31T05:54:55;9.83;;;9.00;;
16393;SDS011;8306;51.128;4.476;2022-10-31T05:57:22;9.77;;;8.87;;
16393;SDS011;8306;51.128;4.476;2022-10-31T05:59:48;8.90;;;8.27;;
16393;SDS011;8306;51.128;4.476;2022-10-31T06:02:15;10.03;;;9.23;;
16393;SDS011;8306;51.128;4.476;2022-10-31T06:04:41;9.50;;;8.60;;
16393;SDS011;8306;51.128;4.476;2022-10-31T06:07:08;11.03;;;10.03;;
16393;SDS011;8306;51.128;4.476;2022-10-31T06:09:34;10.73;;;9.83;;
16393;SDS011;8306;51.128;4.476;2022-10-31T06:12:01;10.73;;;9.63;;
16393;SDS011;8306;51.128;4.476;2022-10-31T06:14:27;10.40;;;9.50;;
16393;SDS011;8306;51.128;4.476;2022-10-31T06:16:54;9.57;;;8.67;;
16393;SDS011;8306;51.128;4.476;2022-10-31T06:19:20;10.27;;;9.27;;
16393;SDS011;8306;51.128;4.476;2022-10-31T06:21:47;9.53;;;8.67;;
16393;SDS011;8306;51.128;4.476;2022-10-31T06:24:13;9.10;;;8.30;;
16393;SDS011;8306;51.128;4.476;2022-10-31T06:26:40;9.70;;;8.80;;
16393;SDS011;8306;51.128;4.476;2022-10-31T06:29:06;8.83;;;8.03;;
16393;SDS011;8306;51.128;4.476;2022-10-31T06:31:32;12.27;;;10.17;;
16393;SDS011;8306;51.128;4.476;2022-10-31T06:33:59;9.07;;;8.23;;
16393;SDS011;8306;51.128;4.476;2022-10-31T06:36:25;10.67;;;9.67;;
16393;SDS011;8306;51.128;4.476;2022-10-31T06:38:52;13.47;;;10.10;;
16393;SDS011;8306;51.128;4.476;2022-10-31T06:41:18;10.13;;;9.33;;
16393;SDS011;8306;51.128;4.476;2022-10-31T06:43:48;11.73;;;10.53;;
16393;SDS011;8306;51.128;4.476;2022-10-31T06:46:14;11.27;;;10.30;;
16393;SDS011;8306;51.128;4.476;2022-10-31T06:48:41;11.23;;;10.30;;
16393;SDS011;8306;51.128;4.476;2022-10-31T06:51:07;13.57;;;11.57;;
16393;SDS011;8306;51.128;4.476;2022-10-31T06:53:34;13.00;;;11.90;;
16393;SDS011;8306;51.128;4.476;2022-10-31T06:56:00;11.20;;;10.20;;
16393;SDS011;8306;51.128;4.476;2022-10-31T06:58:27;13.63;;;12.53;;
16393;SDS011;8306;51.128;4.476;2022-10-31T07:00:53;18.20;;;16.63;;
16393;SDS011;8306;51.128;4.476;2022-10-31T07:03:20;18.63;;;16.97;;
16393;SDS011;8306;51.128;4.476;2022-10-31T07:05:46;16.73;;;15.23;;
16393;SDS011;8306;51.128;4.476;2022-10-31T07:08:13;13.30;;;12.20;;
16393;SDS011;8306;51.128;4.476;2022-10-31T07:10:40;15.43;;;14.03;;
16393;SDS011;8306;51.128;4.476;2022-10-31T07:13:06;14.13;;;12.67;;
16393;SDS011;8306;51.128;4.476;2022-10-31T07:15:33;16.83;;;14.17;;
16393;SDS011;8306;51.128;4.476;2022-10-31T07:17:59;11.93;;;11.03;;
16393;SDS011;8306;51.128;4.476;2022-10-31T07:20:25;11.20;;;10.30;;
16393;SDS011;8306;51.128;4.476;2022-10-31T07:22:52;18.03;;;12.70;;
16393;SDS011;8306;51.128;4.476;2022-10-31T07:25:18;14.03;;;12.67;;
16393;SDS011;8306;51.128;4.476;2022-10-31T07:27:45;12.50;;;11.20;;
16393;SDS011;8306;51.128;4.476;2022-10-31T07:30:11;10.97;;;10.07;;
16393;SDS011;8306;51.128;4.476;2022-10-31T07:32:44;10.73;;;9.97;;
16393;SDS011;8306;51.128;4.476;2022-10-31T07:35:07;15.23;;;13.57;;
16393;SDS011;8306;51.128;4.476;2022-10-31T07:37:33;14.50;;;13.23;;
16393;SDS011;8306;51.128;4.476;2022-10-31T07:40:00;15.70;;;14.10;;
16393;SDS011;8306;51.128;4.476;2022-10-31T07:42:26;15.10;;;13.67;;
16393;SDS011;8306;51.128;4.476;2022-10-31T07:44:53;14.53;;;12.33;;
16393;SDS011;8306;51.128;4.476;2022-10-31T07:47:19;14.20;;;12.83;;
16393;SDS011;8306;51.128;4.476;2022-10-31T07:49:46;13.03;;;11.70;;
16393;SDS011;8306;51.128;4.476;2022-10-31T07:52:12;12.30;;;11.30;;
16393;SDS011;8306;51.128;4.476;2022-10-31T07:54:39;13.60;;;12.50;;
16393;SDS011;8306;51.128;4.476;2022-10-31T07:57:05;12.47;;;10.93;;
16393;SDS011;8306;51.128;4.476;2022-10-31T07:59:32;12.40;;;11.30;;
16393;SDS011;8306;51.128;4.476;2022-10-31T08:01:58;12.27;;;11.27;;
16393;SDS011;8306;51.128;4.476;2022-10-31T08:04:25;12.47;;;11.47;;
16393;SDS011;8306;51.128;4.476;2022-10-31T08:06:51;11.70;;;10.70;;
16393;SDS011;8306;51.128;4.476;2022-10-31T08:09:17;13.03;;;11.87;;
16393;SDS011;8306;51.128;4.476;2022-10-31T08:11:44;17.97;;;14.83;;
16393;SDS011;8306;51.128;4.476;2022-10-31T08:14:10;15.83;;;14.23;;
16393;SDS011;8306;51.128;4.476;2022-10-31T08:16:37;15.60;;;14.10;;
16393;SDS011;8306;51.128;4.476;2022-10-31T08:19:03;15.90;;;14.23;;
16393;SDS011;8306;51.128;4.476;2022-10-31T08:21:30;15.27;;;13.40;;
16393;SDS011;8306;51.128;4.476;2022-10-31T08:23:56;16.83;;;14.73;;
16393;SDS011;8306;51.128;4.476;2022-10-31T08:26:23;15.87;;;14.47;;
16393;SDS011;8306;51.128;4.476;2022-10-31T08:28:49;21.83;;;17.27;;
16393;SDS011;8306;51.128;4.476;2022-10-31T08:31:16;18.27;;;16.67;;
16393;SDS011;8306;51.128;4.476;2022-10-31T08:33:42;16.90;;;14.00;;
16393;SDS011;8306;51.128;4.476;2022-10-31T08:36:09;17.57;;;15.87;;
16393;SDS011;8306;51.128;4.476;2022-10-31T08:38:35;17.10;;;15.37;;
16393;SDS011;8306;51.128;4.476;2022-10-31T08:41:02;16.13;;;14.27;;
16393;SDS011;8306;51.128;4.476;2022-10-31T08:43:28;16.43;;;14.63;;
16393;SDS011;8306;51.128;4.476;2022-10-31T08:45:55;16.97;;;14.90;;
16393;SDS011;8306;51.128;4.476;2022-10-31T08:48:21;16.30;;;14.80;;
16393;SDS011;8306;51.128;4.476;2022-10-31T08:50:48;20.40;;;16.37;;
16393;SDS011;8306;51.128;4.476;2022-10-31T08:53:15;17.17;;;15.53;;
16393;SDS011;8306;51.128;4.476;2022-10-31T08:55:41;14.53;;;13.23;;
16393;SDS011;8306;51.128;4.476;2022-10-31T08:58:09;17.40;;;15.80;;
16393;SDS011;8306;51.128;4.476;2022-10-31T09:00:36;16.57;;;14.97;;
16393;SDS011;8306;51.128;4.476;2022-10-31T09:03:04;15.03;;;13.73;;
16393;SDS011;8306;51.128;4.476;2022-10-31T09:05:32;17.93;;;16.50;;
16393;SDS011;8306;51.128;4.476;2022-10-31T09:07:58;16.93;;;15.50;;
16393;SDS011;8306;51.128;4.476;2022-10-31T09:10:25;25.23;;;17.03;;
16393;SDS011;8306;51.128;4.476;2022-10-31T09:12:55;19.07;;;16.33;;
16393;SDS011;8306;51.128;4.476;2022-10-31T09:15:23;14.43;;;13.13;;
16393;SDS011;8306;51.128;4.476;2022-10-31T09:17:49;20.90;;;18.30;;
16393;SDS011;8306;51.128;4.476;2022-10-31T09:20:16;24.63;;;18.97;;
16393;SDS011;8306;51.128;4.476;2022-10-31T09:22:42;21.87;;;19.30;;
16393;SDS011;8306;51.128;4.476;2022-10-31T09:25:09;21.70;;;19.37;;
16393;SDS011;8306;51.128;4.476;2022-10-31T09:27:35;17.73;;;16.23;;
16393;SDS011;8306;51.128;4.476;2022-10-31T09:30:02;18.33;;;16.73;;
16393;SDS011;8306;51.128;4.476;2022-10-31T09:32:28;17.83;;;16.33;;
16393;SDS011;8306;51.128;4.476;2022-10-31T09:34:55;19.33;;;17.33;;
16393;SDS011;8306;51.128;4.476;2022-10-31T09:37:21;18.77;;;17.07;;
16393;SDS011;8306;51.128;4.476;2022-10-31T09:39:48;22.53;;;20.20;;
16393;SDS011;8306;51.128;4.476;2022-10-31T09:47:52;19.40;;;17.47;;
16393;SDS011;8306;51.128;4.476;2022-10-31T09:50:45;20.43;;;18.47;;
16393;SDS011;8306;51.128;4.476;2022-10-31T09:55:57;18.10;;;16.23;;
16393;SDS011;8306;51.128;4.476;2022-10-31T09:58:25;20.43;;;18.40;;
16393;SDS011;8306;51.128;4.476;2022-10-31T10:00:50;25.77;;;17.73;;
16393;SDS011;8306;51.128;4.476;2022-10-31T10:06:08;24.13;;;18.50;;
16393;SDS011;8306;51.128;4.476;2022-10-31T10:08:36;16.70;;;15.37;;
16393;SDS011;8306;51.128;4.476;2022-10-31T10:11:08;18.43;;;16.73;;
16393;SDS011;8306;51.128;4.476;2022-10-31T10:19:30;17.57;;;15.83;;
16393;SDS011;8306;51.128;4.476;2022-10-31T10:30:21;17.33;;;15.93;;
16393;SDS011;8306;51.128;4.476;2022-10-31T10:32:54;16.87;;;14.67;;
16393;SDS011;8306;51.128;4.476;2022-10-31T10:35:21;14.30;;;13.20;;
16393;SDS011;8306;51.128;4.476;2022-10-31T10:37:58;17.77;;;16.27;;
16393;SDS011;8306;51.128;4.476;2022-10-31T10:40:24;18.00;;;16.13;;
16393;SDS011;8306;51.128;4.476;2022-10-31T10:42:55;17.47;;;15.80;;
16393;SDS011;8306;51.128;4.476;2022-10-31T10:45:37;14.77;;;13.67;;
16393;SDS011;8306;51.128;4.476;2022-10-31T10:48:26;17.67;;;14.67;;
16393;SDS011;8306;51.128;4.476;2022-10-31T10:50:54;15.30;;;13.97;;
16393;SDS011;8306;51.128;4.476;2022-10-31T10:56:12;16.33;;;14.80;;
16393;SDS011;8306;51.128;4.476;2022-10-31T10:58:38;16.33;;;15.03;;
16393;SDS011;8306;51.128;4.476;2022-10-31T11:01:10;18.57;;;16.60;;
16393;SDS011;8306;51.128;4.476;2022-10-31T11:03:36;16.97;;;15.37;;
16393;SDS011;8306;51.128;4.476;2022-10-31T11:06:02;16.70;;;15.40;;
16393;SDS011;8306;51.128;4.476;2022-10-31T11:08:32;17.70;;;16.00;;
16393;SDS011;8306;51.128;4.476;2022-10-31T11:11:02;17.63;;;16.13;;
16393;SDS011;8306;51.128;4.476;2022-10-31T11:13:36;19.33;;;17.30;;
16393;SDS011;8306;51.128;4.476;2022-10-31T11:16:04;18.60;;;16.73;;
16393;SDS011;8306;51.128;4.476;2022-10-31T11:18:36;18.30;;;16.53;;
16393;SDS011;8306;51.128;4.476;2022-10-31T11:21:01;17.50;;;16.10;;
16393;SDS011;8306;51.128;4.476;2022-10-31T11:23:25;19.10;;;17.07;;
16393;SDS011;8306;51.128;4.476;2022-10-31T11:28:21;18.87;;;17.43;;
16393;SDS011;8306;51.128;4.476;2022-10-31T11:30:48;19.93;;;17.80;;
16393;SDS011;8306;51.128;4.476;2022-10-31T11:33:24;19.50;;;17.77;;
16393;SDS011;8306;51.128;4.476;2022-10-31T11:35:49;20.20;;;18.30;;
16393;SDS011;8306;51.128;4.476;2022-10-31T11:38:19;19.40;;;17.83;;
16393;SDS011;8306;51.128;4.476;2022-10-31T11:40:51;19.27;;;17.60;;
16393;SDS011;8306;51.128;4.476;2022-10-31T11:43:17;20.67;;;18.57;;
16393;SDS011;8306;51.128;4.476;2022-10-31T11:45:43;18.57;;;16.60;;
16393;SDS011;8306;51.128;4.476;2022-10-31T11:48:16;19.63;;;17.57;;
16393;SDS011;8306;51.128;4.476;2022-10-31T11:50:51;17.20;;;15.67;;
16393;SDS011;8306;51.128;4.476;2022-10-31T11:53:17;19.43;;;17.07;;
16393;SDS011;8306;51.128;4.476;2022-10-31T11:55:44;19.70;;;16.10;;
16393;SDS011;8306;51.128;4.476;2022-10-31T11:58:24;17.33;;;15.67;;
16393;SDS011;8306;51.128;4.476;2022-10-31T12:00:53;18.60;;;16.77;;
16393;SDS011;8306;51.128;4.476;2022-10-31T12:03:32;17.10;;;15.30;;
16393;SDS011;8306;51.128;4.476;2022-10-31T12:06:16;16.27;;;14.87;;
16393;SDS011;8306;51.128;4.476;2022-10-31T12:08:47;17.57;;;15.40;;
16393;SDS011;8306;51.128;4.476;2022-10-31T12:11:32;24.10;;;16.30;;
16393;SDS011;8306;51.128;4.476;2022-10-31T12:14:09;16.90;;;15.37;;
16393;SDS011;8306;51.128;4.476;2022-10-31T12:19:46;18.20;;;16.13;;
16393;SDS011;8306;51.128;4.476;2022-10-31T12:22:23;18.77;;;17.07;;
16393;SDS011;8306;51.128;4.476;2022-10-31T12:24:56;18.37;;;16.63;;
16393;SDS011;8306;51.128;4.476;2022-10-31T12:37:43;17.83;;;16.03;;
16393;SDS011;8306;51.128;4.476;2022-10-31T12:40:15;26.43;;;17.90;;
16393;SDS011;8306;51.128;4.476;2022-10-31T12:42:43;19.27;;;17.37;;
16393;SDS011;8306;51.128;4.476;2022-10-31T12:55:55;16.87;;;15.23;;
16393;SDS011;8306;51.128;4.476;2022-10-31T12:58:22;17.53;;;15.73;;
16393;SDS011;8306;51.128;4.476;2022-10-31T13:01:12;17.73;;;15.93;;
16393;SDS011;8306;51.128;4.476;2022-10-31T13:05:58;16.13;;;14.63;;
16393;SDS011;8306;51.128;4.476;2022-10-31T13:08:28;14.93;;;13.63;;
16393;SDS011;8306;51.128;4.476;2022-10-31T13:11:00;15.30;;;13.80;;
16393;SDS011;8306;51.128;4.476;2022-10-31T13:13:26;14.77;;;13.10;;
16393;SDS011;8306;51.128;4.476;2022-10-31T13:15:52;14.50;;;12.97;;
16393;SDS011;8306;51.128;4.476;2022-10-31T13:18:27;14.03;;;12.70;;
16393;SDS011;8306;51.128;4.476;2022-10-31T13:20:56;13.57;;;12.27;;
16393;SDS011;8306;51.128;4.476;2022-10-31T13:23:34;15.43;;;13.37;;
16393;SDS011;8306;51.128;4.476;2022-10-31T13:25:58;13.10;;;11.77;;
16393;SDS011;8306;51.128;4.476;2022-10-31T13:28:26;13.30;;;12.03;;
16393;SDS011;8306;51.128;4.476;2022-10-31T13:31:02;13.33;;;11.53;;
16393;SDS011;8306;51.128;4.476;2022-10-31T13:38:36;11.13;;;10.13;;
16393;SDS011;8306;51.128;4.476;2022-10-31T13:41:15;11.93;;;10.27;;
16393;SDS011;8306;51.128;4.476;2022-10-31T13:43:59;12.43;;;8.77;;
16393;SDS011;8306;51.128;4.476;2022-10-31T13:46:39;8.07;;;7.37;;
16393;SDS011;8306;51.128;4.476;2022-10-31T13:49:18;8.00;;;7.20;;
16393;SDS011;8306;51.128;4.476;2022-10-31T13:51:32;8.83;;;7.37;;
16393;SDS011;8306;51.128;4.476;2022-10-31T13:53:58;8.80;;;7.90;;
16393;SDS011;8306;51.128;4.476;2022-10-31T13:56:30;8.97;;;8.10;;
16393;SDS011;8306;51.128;4.476;2022-10-31T13:59:03;8.63;;;6.80;;
16393;SDS011;8306;51.128;4.476;2022-10-31T14:01:37;9.47;;;6.90;;
16393;SDS011;8306;51.128;4.476;2022-10-31T14:04:05;11.80;;;6.87;;
16393;SDS011;8306;51.128;4.476;2022-10-31T14:06:37;9.07;;;6.80;;
16393;SDS011;8306;51.128;4.476;2022-10-31T14:09:02;8.93;;;7.23;;
16393;SDS011;8306;51.128;4.476;2022-10-31T14:11:29;8.00;;;6.90;;
16393;SDS011;8306;51.128;4.476;2022-10-31T14:13:56;12.23;;;6.97;;
16393;SDS011;8306;51.128;4.476;2022-10-31T14:16:25;8.00;;;7.20;;
16393;SDS011;8306;51.128;4.476;2022-10-31T14:19:01;8.23;;;7.03;;
16393;SDS011;8306;51.128;4.476;2022-10-31T14:21:27;7.50;;;6.70;;
16393;SDS011;8306;51.128;4.476;2022-10-31T14:23:52;8.23;;;6.70;;
16393;SDS011;8306;51.128;4.476;2022-10-31T14:28:53;8.90;;;8.00;;
16393;SDS011;8306;51.128;4.476;2022-10-31T14:31:41;8.63;;;7.60;;
16393;SDS011;8306;51.128;4.476;2022-10-31T14:36:46;10.87;;;7.73;;
16393;SDS011;8306;51.128;4.476;2022-10-31T14:39:24;7.83;;;7.03;;
16393;SDS011;8306;51.128;4.476;2022-10-31T14:42:04;8.43;;;6.63;;
16393;SDS011;8306;51.128;4.476;2022-10-31T14:47:20;13.50;;;7.80;;
16393;SDS011;8306;51.128;4.476;2022-10-31T14:52:24;7.67;;;6.90;;
16393;SDS011;8306;51.128;4.476;2022-10-31T14:54:54;7.73;;;6.60;;
16393;SDS011;8306;51.128;4.476;2022-10-31T14:57:29;7.40;;;6.70;;
16393;SDS011;8306;51.128;4.476;2022-10-31T15:00:05;7.13;;;6.30;;
16393;SDS011;8306;51.128;4.476;2022-10-31T15:02:23;8.07;;;6.67;;
16393;SDS011;8306;51.128;4.476;2022-10-31T15:04:53;9.83;;;6.00;;
16393;SDS011;8306;51.128;4.476;2022-10-31T15:07:24;7.17;;;6.43;;
16393;SDS011;8306;51.128;4.476;2022-10-31T15:10:00;6.73;;;6.10;;
16393;SDS011;8306;51.128;4.476;2022-10-31T15:12:29;7.60;;;6.20;;
16393;SDS011;8306;51.128;4.476;2022-10-31T15:14:54;8.00;;;6.93;;
16393;SDS011;8306;51.128;4.476;2022-10-31T15:17:20;8.77;;;5.90;;
16393;SDS011;8306;51.128;4.476;2022-10-31T15:19:47;8.27;;;7.03;;
16393;SDS011;8306;51.128;4.476;2022-10-31T15:22:14;6.33;;;5.73;;
16393;SDS011;8306;51.128;4.476;2022-10-31T15:24:40;6.70;;;6.03;;
16393;SDS011;8306;51.128;4.476;2022-10-31T15:27:09;7.50;;;6.40;;
16393;SDS011;8306;51.128;4.476;2022-10-31T15:29:33;7.90;;;6.10;;
16393;SDS011;8306;51.128;4.476;2022-10-31T15:32:00;8.77;;;6.27;;
16393;SDS011;8306;51.128;4.476;2022-10-31T15:34:27;8.27;;;6.43;;
16393;SDS011;8306;51.128;4.476;2022-10-31T15:36:52;6.57;;;5.97;;
16393;SDS011;8306;51.128;4.476;2022-10-31T15:39:19;6.83;;;6.07;;
16393;SDS011;8306;51.128;4.476;2022-10-31T15:41:52;7.13;;;5.37;;
16393;SDS011;8306;51.128;4.476;2022-10-31T15:51:54;7.63;;;6.60;;
16393;SDS011;8306;51.128;4.476;2022-10-31T15:54:21;8.30;;;7.03;;
16393;SDS011;8306;51.128;4.476;2022-10-31T15:56:47;7.30;;;6.43;;
16393;SDS011;8306;51.128;4.476;2022-10-31T15:59:24;9.50;;;6.97;;
16393;SDS011;8306;51.128;4.476;2022-10-31T16:01:40;8.67;;;6.60;;
16393;SDS011;8306;51.128;4.476;2022-10-31T16:06:36;9.53;;;6.73;;
16393;SDS011;8306;51.128;4.476;2022-10-31T16:09:03;7.90;;;7.17;;
16393;SDS011;8306;51.128;4.476;2022-10-31T16:11:35;8.47;;;6.77;;
16393;SDS011;8306;51.128;4.476;2022-10-31T16:14:05;9.80;;;6.77;;
16393;SDS011;8306;51.128;4.476;2022-10-31T16:16:30;9.27;;;7.17;;
16393;SDS011;8306;51.128;4.476;2022-10-31T16:18:57;7.80;;;6.90;;
16393;SDS011;8306;51.128;4.476;2022-10-31T16:21:31;9.17;;;8.23;;
16393;SDS011;8306;51.128;4.476;2022-10-31T16:23:54;8.40;;;7.60;;
16393;SDS011;8306;51.128;4.476;2022-10-31T16:26:19;8.53;;;7.73;;
16393;SDS011;8306;51.128;4.476;2022-10-31T16:28:56;8.17;;;7.30;;
16393;SDS011;8306;51.128;4.476;2022-10-31T16:31:25;9.10;;;8.20;;
16393;SDS011;8306;51.128;4.476;2022-10-31T16:33:45;9.60;;;8.37;;
16393;SDS011;8306;51.128;4.476;2022-10-31T16:38:56;9.33;;;8.00;;